createdAt,value
2019-02-10T00:01:00.604Z,27.52
2019-02-10T00:02:04.921Z,26.62
2019-02-10T00:03:08.551Z,25.92
2019-02-10T00:04:12.247Z,26.15
2019-02-10T00:05:15.963Z,26.15
2019-02-10T00:06:24.630Z,24.98
2019-02-10T00:07:25.034Z,24.10
2019-02-10T00:08:28.736Z,23.02
2019-02-10T00:09:32.347Z,21.68
2019-02-10T00:10:35.983Z,22.37
2019-02-10T00:11:39.751Z,24.43
2019-02-10T00:12:46.376Z,21.93
2019-02-10T00:13:50.012Z,22.80
2019-02-10T00:14:53.676Z,24.52
2019-02-10T00:15:59.382Z,24.05
2019-02-10T00:17:03.238Z,23.30
2019-02-10T00:18:06.941Z,22.52
2019-02-10T00:19:10.573Z,23.05
2019-02-10T00:20:14.264Z,22.37
2019-02-10T00:21:17.893Z,22.55
2019-02-10T00:22:21.921Z,21.90
2019-02-10T00:23:25.578Z,21.95
2019-02-10T00:24:29.419Z,22.42
2019-02-10T00:25:33.082Z,22.25
2019-02-10T00:26:36.721Z,23.62
2019-02-10T00:27:40.356Z,24.15
2019-02-10T00:28:43.985Z,22.90
2019-02-10T00:29:47.619Z,24.25
2019-02-10T00:30:51.551Z,23.52
2019-02-10T00:31:55.260Z,24.47
2019-02-10T00:32:58.976Z,23.60
2019-02-10T00:34:02.615Z,23.27
2019-02-10T00:35:06.253Z,23.35
2019-02-10T00:36:09.916Z,22.93
2019-02-10T00:37:13.549Z,23.77
2019-02-10T00:38:17.199Z,25.00
2019-02-10T00:39:20.829Z,22.87
2019-02-10T00:40:24.463Z,25.37
2019-02-10T00:41:28.522Z,25.40
2019-02-10T00:42:32.230Z,25.25
2019-02-10T00:43:35.937Z,24.35
2019-02-10T00:44:39.571Z,24.82
2019-02-10T00:45:43.274Z,24.95
2019-02-10T00:46:46.949Z,25.75
2019-02-10T00:47:50.582Z,26.50
2019-02-10T00:48:54.153Z,25.43
2019-02-10T00:49:57.721Z,25.32
2019-02-10T00:51:01.362Z,26.35
2019-02-10T00:52:05.034Z,27.65
2019-02-10T00:53:08.668Z,27.37
2019-02-10T00:54:12.322Z,26.85
2019-02-10T00:55:16.035Z,25.77
2019-02-10T00:56:19.732Z,24.75
2019-02-10T00:57:23.332Z,25.08
2019-02-10T00:58:27.010Z,26.90
2019-02-10T00:59:30.652Z,24.40
2019-02-10T01:00:34.544Z,23.38
2019-02-10T01:01:38.186Z,24.40
2019-02-10T01:02:41.853Z,24.55
2019-02-10T01:03:45.348Z,27.30
2019-02-10T01:04:48.985Z,24.02
2019-02-10T01:05:52.722Z,25.17
2019-02-10T01:06:56.356Z,25.37
2019-02-10T01:08:00.027Z,24.60
2019-02-10T01:09:04.841Z,25.32
2019-02-10T01:10:09.740Z,25.92
2019-02-10T01:11:13.743Z,24.57
2019-02-10T01:12:18.568Z,25.90
2019-02-10T01:13:22.245Z,26.17
2019-02-10T01:14:26.257Z,26.77
2019-02-10T01:15:29.896Z,25.45
2019-02-10T01:16:33.534Z,26.68
2019-02-10T01:17:37.174Z,25.37
2019-02-10T01:18:43.755Z,26.70
2019-02-10T01:19:47.391Z,28.47
2019-02-10T01:20:51.021Z,26.65
2019-02-10T01:21:54.674Z,26.75
2019-02-10T01:22:58.665Z,28.27
2019-02-10T01:24:02.336Z,27.50
2019-02-10T01:25:07.769Z,26.35
2019-02-10T01:26:11.430Z,25.62
2019-02-10T01:27:15.056Z,25.12
2019-02-10T01:28:18.691Z,26.30
2019-02-10T01:29:22.368Z,26.10
2019-02-10T01:30:26.105Z,26.33
2019-02-10T01:31:29.734Z,25.55
2019-02-10T01:32:33.370Z,25.68
2019-02-10T01:33:37.380Z,25.95
2019-02-10T01:34:41.016Z,25.92
2019-02-10T01:35:44.651Z,27.40
2019-02-10T01:36:50.040Z,26.50
2019-02-10T01:37:54.042Z,24.98
2019-02-10T01:38:57.747Z,25.30
2019-02-10T01:40:01.434Z,26.97
2019-02-10T01:41:05.118Z,28.90
2019-02-10T01:42:08.831Z,25.00
2019-02-10T01:43:12.471Z,25.43
2019-02-10T01:44:16.035Z,26.45
2019-02-10T01:45:19.700Z,25.08
2019-02-10T01:46:23.355Z,27.85
2019-02-10T01:47:27.079Z,27.42
2019-02-10T01:48:30.723Z,27.45
2019-02-10T01:49:34.295Z,27.85
2019-02-10T01:50:37.967Z,27.15
2019-02-10T01:51:41.669Z,27.52
2019-02-10T01:52:45.294Z,27.22
2019-02-10T01:53:49.283Z,27.22
2019-02-10T01:54:52.930Z,25.95
2019-02-10T01:55:56.580Z,25.08
2019-02-10T01:57:00.215Z,24.95
2019-02-10T01:58:03.859Z,23.90
2019-02-10T01:59:07.505Z,24.20
2019-02-10T02:00:14.143Z,24.60
2019-02-10T02:01:18.511Z,23.52
2019-02-10T02:02:22.167Z,24.63
2019-02-10T02:03:25.795Z,25.97
2019-02-10T02:04:29.437Z,26.23
2019-02-10T02:05:33.076Z,24.47
2019-02-10T02:06:36.735Z,26.48
2019-02-10T02:07:40.376Z,24.65
2019-02-10T02:08:44.022Z,26.27
2019-02-10T02:09:47.915Z,25.02
2019-02-10T02:10:51.556Z,26.17
2019-02-10T02:11:55.229Z,25.97
2019-02-10T02:12:59.256Z,25.97
2019-02-10T02:14:02.984Z,26.48
2019-02-10T02:15:09.531Z,25.77
2019-02-10T02:16:13.166Z,27.95
2019-02-10T02:17:16.771Z,25.10
2019-02-10T02:18:20.321Z,26.17
2019-02-10T02:19:23.953Z,26.23
2019-02-10T02:20:27.704Z,25.77
2019-02-10T02:21:31.342Z,27.70
2019-02-10T02:22:35.020Z,25.75
2019-02-10T02:23:38.587Z,26.62
2019-02-10T02:24:42.211Z,25.95
2019-02-10T02:25:45.918Z,26.65
2019-02-10T02:26:52.352Z,25.60
2019-02-10T02:27:56.011Z,26.75
2019-02-10T02:28:59.580Z,25.72
2019-02-10T02:30:03.668Z,26.75
2019-02-10T02:31:07.303Z,26.30
2019-02-10T02:32:10.936Z,25.27
2019-02-10T02:33:14.578Z,24.95
2019-02-10T02:34:18.147Z,25.37
2019-02-10T02:35:21.781Z,26.30
2019-02-10T02:36:25.432Z,26.52
2019-02-10T02:37:29.001Z,25.20
2019-02-10T02:38:32.737Z,24.67
2019-02-10T02:39:36.388Z,23.92
2019-02-10T02:40:40.022Z,24.00
2019-02-10T02:41:43.512Z,24.32
2019-02-10T02:42:47.081Z,25.17
2019-02-10T02:43:50.752Z,24.30
2019-02-10T02:44:54.384Z,25.08
2019-02-10T02:45:58.032Z,26.70
2019-02-10T02:47:02.019Z,25.75
2019-02-10T02:48:05.663Z,26.48
2019-02-10T02:49:09.323Z,26.87
2019-02-10T02:50:13.021Z,25.95
2019-02-10T02:51:16.727Z,26.85
2019-02-10T02:52:20.358Z,25.27
2019-02-10T02:53:24.040Z,25.35
2019-02-10T02:54:27.699Z,24.07
2019-02-10T02:55:31.339Z,25.55
2019-02-10T02:56:34.910Z,23.98
2019-02-10T02:57:39.071Z,23.83
2019-02-10T02:58:42.712Z,23.90
2019-02-10T02:59:46.443Z,25.45
2019-02-10T03:00:50.152Z,24.25
2019-02-10T03:01:53.865Z,24.72
2019-02-10T03:02:57.944Z,25.52
2019-02-10T03:04:01.657Z,24.43
2019-02-10T03:05:07.442Z,25.60
2019-02-10T03:06:11.070Z,24.72
2019-02-10T03:07:17.979Z,26.25
2019-02-10T03:08:20.016Z,24.40
2019-02-10T03:09:23.656Z,24.25
2019-02-10T03:10:27.321Z,25.57
2019-02-10T03:11:31.387Z,24.35
2019-02-10T03:12:35.093Z,22.42
2019-02-10T03:13:38.836Z,24.32
2019-02-10T03:14:42.504Z,23.75
2019-02-10T03:15:46.530Z,24.47
2019-02-10T03:16:50.084Z,24.92
2019-02-10T03:17:53.808Z,25.08
2019-02-10T03:18:57.447Z,24.98
2019-02-10T03:20:01.087Z,24.00
2019-02-10T03:21:04.777Z,23.77
2019-02-10T03:22:08.422Z,25.50
2019-02-10T03:23:12.061Z,25.52
2019-02-10T03:24:15.701Z,24.77
2019-02-10T03:25:19.343Z,25.52
2019-02-10T03:26:23.366Z,27.05
2019-02-10T03:27:27.005Z,26.40
2019-02-10T03:28:30.677Z,25.90
2019-02-10T03:29:34.288Z,25.97
2019-02-10T03:30:37.855Z,26.62
2019-02-10T03:31:41.533Z,25.68
2019-02-10T03:32:45.251Z,25.92
2019-02-10T03:33:48.961Z,24.45
2019-02-10T03:34:52.788Z,25.00
2019-02-10T03:35:56.488Z,26.55
2019-02-10T03:37:00.169Z,25.77
2019-02-10T03:38:03.808Z,26.68
2019-02-10T03:39:07.469Z,25.15
2019-02-10T03:40:11.787Z,25.37
2019-02-10T03:41:15.377Z,25.35
2019-02-10T03:42:19.438Z,27.32
2019-02-10T03:43:23.088Z,25.97
2019-02-10T03:44:26.843Z,24.82
2019-02-10T03:45:30.509Z,24.50
2019-02-10T03:46:34.220Z,27.35
2019-02-10T03:47:37.957Z,25.50
2019-02-10T03:48:41.488Z,26.65
2019-02-10T03:49:45.138Z,25.80
2019-02-10T03:50:48.776Z,25.17
2019-02-10T03:51:52.487Z,26.48
2019-02-10T03:52:56.228Z,23.98
2019-02-10T03:53:59.941Z,24.92
2019-02-10T03:55:03.849Z,24.47
2019-02-10T03:56:07.564Z,25.40
2019-02-10T03:57:11.203Z,25.40
2019-02-10T03:58:14.965Z,25.17
2019-02-10T03:59:18.620Z,25.20
2019-02-10T04:00:22.257Z,24.10
2019-02-10T04:01:25.927Z,24.80
2019-02-10T04:02:29.541Z,23.02
2019-02-10T04:03:33.282Z,23.45
2019-02-10T04:04:36.999Z,22.27
2019-02-10T04:05:40.634Z,23.00
2019-02-10T04:06:44.354Z,23.12
2019-02-10T04:07:47.996Z,22.45
2019-02-10T04:08:51.677Z,22.10
2019-02-10T04:09:55.516Z,23.40
2019-02-10T04:10:59.160Z,22.77
2019-02-10T04:12:02.801Z,20.40
2019-02-10T04:13:06.514Z,22.82
2019-02-10T04:14:10.194Z,22.42
2019-02-10T04:15:13.826Z,22.50
2019-02-10T04:16:17.447Z,23.22
2019-02-10T04:17:21.086Z,21.10
2019-02-10T04:18:24.815Z,22.42
2019-02-10T04:19:28.491Z,21.75
2019-02-10T04:20:32.206Z,23.10
2019-02-10T04:21:35.853Z,22.85
2019-02-10T04:22:39.436Z,24.27
2019-02-10T04:23:43.076Z,23.15
2019-02-10T04:24:46.756Z,24.57
2019-02-10T04:25:50.392Z,25.05
2019-02-10T04:26:54.375Z,24.77
2019-02-10T04:27:58.013Z,25.62
2019-02-10T04:29:01.665Z,25.25
2019-02-10T04:30:09.179Z,25.30
2019-02-10T04:31:13.285Z,24.65
2019-02-10T04:32:16.992Z,27.85
2019-02-10T04:33:20.702Z,27.10
2019-02-10T04:34:24.777Z,26.93
2019-02-10T04:35:28.413Z,27.05
2019-02-10T04:36:32.048Z,25.23
2019-02-10T04:37:45.005Z,26.40
2019-02-10T04:38:41.055Z,24.98
2019-02-10T04:39:44.833Z,26.73
2019-02-10T04:40:48.590Z,26.65
2019-02-10T04:41:52.298Z,25.72
2019-02-10T04:42:55.875Z,26.82
2019-02-10T04:43:59.538Z,26.00
2019-02-10T04:45:03.155Z,26.55
2019-02-10T04:46:06.836Z,24.47
2019-02-10T04:47:10.481Z,25.60
2019-02-10T04:48:14.126Z,24.10
2019-02-10T04:49:17.771Z,25.12
2019-02-10T04:50:21.412Z,24.37
2019-02-10T04:51:25.094Z,24.98
2019-02-10T04:52:28.734Z,23.95
2019-02-10T04:53:32.381Z,24.80
2019-02-10T04:54:36.014Z,25.05
2019-02-10T04:55:39.655Z,26.82
2019-02-10T04:56:43.544Z,24.15
2019-02-10T04:57:47.180Z,26.35
2019-02-10T04:58:50.769Z,26.33
2019-02-10T04:59:54.406Z,27.27
2019-02-10T05:00:58.051Z,25.97
2019-02-10T05:02:01.730Z,27.20
2019-02-10T05:03:05.402Z,27.22
2019-02-10T05:04:09.052Z,28.15
2019-02-10T05:05:12.691Z,28.87
2019-02-10T05:06:16.333Z,27.10
2019-02-10T05:07:20.017Z,26.57
2019-02-10T05:08:23.941Z,25.82
2019-02-10T05:09:27.652Z,24.30
2019-02-10T05:10:31.293Z,22.45
2019-02-10T05:11:34.937Z,24.10
2019-02-10T05:12:38.608Z,24.55
2019-02-10T05:13:42.248Z,25.05
2019-02-10T05:14:45.952Z,25.27
2019-02-10T05:15:49.596Z,26.20
2019-02-10T05:16:53.169Z,26.20
2019-02-10T05:17:56.788Z,26.50
2019-02-10T05:19:00.422Z,26.82
2019-02-10T05:20:05.472Z,29.12
2019-02-10T05:21:09.105Z,29.12
2019-02-10T05:22:12.737Z,29.15
2019-02-10T05:23:16.406Z,29.23
2019-02-10T05:24:20.044Z,27.27
2019-02-10T05:25:23.689Z,28.07
2019-02-10T05:26:27.320Z,28.42
2019-02-10T05:27:30.974Z,29.48
2019-02-10T05:28:34.644Z,29.32
2019-02-10T05:29:38.247Z,27.75
2019-02-10T05:30:41.818Z,29.10
2019-02-10T05:31:45.460Z,28.07
2019-02-10T05:32:49.033Z,29.10
2019-02-10T05:33:52.720Z,28.45
2019-02-10T05:34:56.360Z,28.32
2019-02-10T05:36:00.410Z,28.35
2019-02-10T05:37:03.986Z,29.85
2019-02-10T05:38:07.622Z,29.75
2019-02-10T05:39:11.298Z,29.35
2019-02-10T05:40:14.994Z,31.75
2019-02-10T05:41:18.650Z,36.13
2019-02-10T05:42:22.489Z,41.37
2019-02-10T05:43:26.137Z,39.65
2019-02-10T05:44:29.739Z,39.33
2019-02-10T05:45:33.378Z,44.98
2019-02-10T05:46:37.445Z,41.05
2019-02-10T05:47:41.089Z,41.00
2019-02-10T05:48:44.654Z,38.10
2019-02-10T05:49:48.327Z,37.80
2019-02-10T05:50:51.971Z,36.88
2019-02-10T05:51:55.545Z,40.60
2019-02-10T05:52:59.208Z,42.90
2019-02-10T05:54:03.158Z,41.30
2019-02-10T05:55:06.846Z,43.52
2019-02-10T05:56:10.483Z,40.43
2019-02-10T05:57:14.198Z,37.50
2019-02-10T05:58:17.838Z,37.95
2019-02-10T05:59:21.474Z,35.55
2019-02-10T06:00:25.410Z,38.53
2019-02-10T06:02:00.218Z,36.65
2019-02-10T06:03:04.247Z,38.13
2019-02-10T06:04:07.913Z,40.75
2019-02-10T06:05:17.854Z,39.67
2019-02-10T06:06:21.508Z,39.20
2019-02-10T06:07:25.152Z,36.40
2019-02-10T06:08:28.803Z,32.58
2019-02-10T06:09:32.430Z,31.37
2019-02-10T06:10:36.005Z,30.57
2019-02-10T06:11:39.672Z,32.65
2019-02-10T06:12:43.313Z,31.42
2019-02-10T06:13:47.025Z,33.35
2019-02-10T06:14:50.997Z,31.60
2019-02-10T06:15:54.638Z,32.63
2019-02-10T06:16:58.238Z,40.20
2019-02-10T06:18:01.797Z,36.40
2019-02-10T06:19:05.780Z,35.45
2019-02-10T06:20:11.124Z,34.27
2019-02-10T06:21:14.771Z,35.60
2019-02-10T06:22:18.377Z,34.53
2019-02-10T06:23:22.022Z,38.10
2019-02-10T06:24:25.778Z,39.90
2019-02-10T06:25:29.418Z,40.40
2019-02-10T06:26:33.049Z,41.77
2019-02-10T06:27:36.808Z,43.87
2019-02-10T06:28:40.980Z,44.83
2019-02-10T06:29:44.682Z,41.63
2019-02-10T06:30:48.315Z,43.65
2019-02-10T06:31:52.026Z,43.10
2019-02-10T06:32:55.733Z,39.88
2019-02-10T06:33:59.437Z,40.75
2019-02-10T06:35:03.195Z,40.15
2019-02-10T06:36:06.777Z,39.48
2019-02-10T06:37:11.890Z,35.98
2019-02-10T06:38:22.427Z,36.85
2019-02-10T06:39:22.461Z,35.78
2019-02-10T06:40:26.278Z,39.65
2019-02-10T06:41:29.983Z,38.38
2019-02-10T06:42:33.654Z,35.90
2019-02-10T06:43:37.574Z,37.83
2019-02-10T06:44:41.212Z,38.33
2019-02-10T06:45:44.856Z,37.35
2019-02-10T06:46:48.569Z,38.00
2019-02-10T06:47:52.209Z,40.40
2019-02-10T06:48:56.255Z,48.28
2019-02-10T06:49:59.901Z,49.50
2019-02-10T06:51:03.553Z,48.98
2019-02-10T06:52:07.290Z,43.90
2019-02-10T06:53:10.993Z,41.40
2019-02-10T06:54:15.055Z,44.98
2019-02-10T06:55:18.677Z,45.92
2019-02-10T06:56:22.394Z,45.45
2019-02-10T06:57:26.033Z,46.35
2019-02-10T06:58:29.597Z,43.00
2019-02-10T06:59:47.040Z,43.05
2019-02-10T07:00:52.324Z,44.77
2019-02-10T07:01:57.652Z,42.23
2019-02-10T07:03:28.462Z,45.30
2019-02-10T07:04:32.187Z,50.05
2019-02-10T07:05:35.938Z,47.53
2019-02-10T07:06:39.648Z,45.90
2019-02-10T07:07:43.301Z,46.53
2019-02-10T07:08:46.998Z,49.55
2019-02-10T07:09:50.710Z,50.30
2019-02-10T07:10:54.426Z,59.55
2019-02-10T07:11:58.032Z,59.30
2019-02-10T07:13:01.753Z,64.82
2019-02-10T07:14:06.015Z,60.60
2019-02-10T07:15:29.189Z,58.15
2019-02-10T07:16:38.884Z,76.25
2019-02-10T07:17:44.951Z,58.78
2019-02-10T07:19:24.947Z,55.43
2019-02-10T07:20:41.600Z,45.03
2019-02-10T07:21:45.283Z,48.60
2019-02-10T07:22:51.904Z,49.20
2019-02-10T07:24:01.649Z,52.13
2019-02-10T07:25:17.226Z,52.60
2019-02-10T07:26:23.910Z,50.55
2019-02-10T07:27:28.393Z,45.45
2019-02-10T07:28:39.700Z,46.33
2019-02-10T07:29:46.318Z,50.63
2019-02-10T07:30:55.498Z,51.88
2019-02-10T07:31:59.201Z,48.05
2019-02-10T07:33:05.145Z,50.00
2019-02-10T07:34:17.905Z,45.70
2019-02-10T07:35:35.777Z,43.63
2019-02-10T07:36:42.461Z,44.50
2019-02-10T07:37:55.342Z,46.05
2019-02-10T07:39:09.488Z,48.28
2019-02-10T07:40:28.250Z,45.55
2019-02-10T07:41:46.564Z,45.28
2019-02-10T07:43:09.657Z,46.13
2019-02-10T07:44:28.478Z,45.40
2019-02-10T07:45:46.429Z,52.38
2019-02-10T07:47:17.432Z,43.33
2019-02-10T07:48:26.659Z,40.98
2019-02-10T07:50:05.391Z,42.88
2019-02-10T07:51:17.648Z,42.62
2019-02-10T07:52:24.305Z,42.38
2019-02-10T07:53:43.068Z,40.17
2019-02-10T07:54:49.628Z,39.85
2019-02-10T07:56:16.045Z,38.10
2019-02-10T07:57:25.445Z,39.15
2019-02-10T07:58:34.772Z,39.73
2019-02-10T07:59:47.262Z,33.02
2019-02-10T08:00:53.820Z,37.93
2019-02-10T08:02:23.920Z,40.03
2019-02-10T08:03:36.574Z,37.73
2019-02-10T08:04:43.134Z,42.20
2019-02-10T08:05:52.569Z,40.85
2019-02-10T08:07:09.246Z,40.67
2019-02-10T08:08:31.220Z,46.58
2019-02-10T08:09:46.487Z,45.60
2019-02-10T08:11:04.979Z,41.77
2019-02-10T08:12:31.274Z,43.38
2019-02-10T08:13:47.105Z,50.53
2019-02-10T08:14:59.312Z,48.35
2019-02-10T08:16:09.375Z,47.53
2019-02-10T08:17:37.031Z,47.30
2019-02-10T08:18:46.676Z,44.67
2019-02-10T08:19:53.391Z,48.97
2019-02-10T08:20:59.950Z,48.03
2019-02-10T08:22:06.475Z,49.57
2019-02-10T08:23:18.610Z,51.43
2019-02-10T08:24:25.243Z,49.30
2019-02-10T08:25:40.835Z,44.10
2019-02-10T08:26:50.421Z,40.17
2019-02-10T08:28:03.001Z,40.50
2019-02-10T08:29:24.766Z,39.47
2019-02-10T08:30:52.164Z,39.73
2019-02-10T08:32:23.113Z,41.20
2019-02-10T08:33:29.677Z,35.83
2019-02-10T08:35:02.045Z,34.87
2019-02-10T08:36:20.631Z,35.93
2019-02-10T08:37:42.028Z,40.07
2019-02-10T08:39:04.005Z,40.30
2019-02-10T08:40:22.664Z,41.27
2019-02-10T08:41:35.138Z,39.83
2019-02-10T08:43:02.470Z,37.03
2019-02-10T08:44:15.074Z,33.87
2019-02-10T08:45:24.524Z,38.63
2019-02-10T08:46:37.051Z,40.27
2019-02-10T08:47:49.288Z,35.00
2019-02-10T08:49:01.749Z,35.63
2019-02-10T08:50:20.422Z,32.97
2019-02-10T08:51:39.222Z,35.30
2019-02-10T08:52:54.732Z,37.57
2019-02-10T08:53:58.476Z,34.53
2019-02-10T08:55:02.515Z,38.90
2019-02-10T08:56:06.310Z,38.87
2019-02-10T08:57:10.403Z,37.90
2019-02-10T08:58:14.206Z,35.47
2019-02-10T08:59:17.847Z,35.37
2019-02-10T09:00:21.495Z,33.60
2019-02-10T09:01:25.062Z,37.00
2019-02-10T09:02:28.729Z,35.57
2019-02-10T09:03:32.443Z,34.90
2019-02-10T09:04:36.084Z,36.40
2019-02-10T09:05:39.717Z,34.47
2019-02-10T09:06:43.448Z,32.10
2019-02-10T09:07:47.119Z,33.07
2019-02-10T09:08:50.776Z,32.00
2019-02-10T09:09:54.426Z,31.97
2019-02-10T09:10:58.132Z,33.47
2019-02-10T09:12:01.770Z,35.77
2019-02-10T09:13:05.519Z,39.93
2019-02-10T09:14:09.184Z,41.40
2019-02-10T09:15:13.181Z,41.53
2019-02-10T09:16:16.821Z,41.40
2019-02-10T09:17:20.477Z,38.87
2019-02-10T09:18:24.221Z,39.10
2019-02-10T09:19:27.940Z,38.27
2019-02-10T09:20:31.588Z,35.97
2019-02-10T09:21:35.358Z,34.60
2019-02-10T09:22:39.462Z,38.33
2019-02-10T09:23:43.479Z,36.40
2019-02-10T09:24:47.062Z,34.93
2019-02-10T09:25:50.707Z,34.60
2019-02-10T09:26:54.357Z,35.77
2019-02-10T09:27:58.002Z,33.70
2019-02-10T09:29:01.604Z,31.43
2019-02-10T09:30:08.719Z,33.77
2019-02-10T09:31:12.368Z,33.93
2019-02-10T09:32:16.089Z,35.23
2019-02-10T09:33:19.788Z,33.63
2019-02-10T09:34:23.543Z,32.03
2019-02-10T09:35:27.267Z,30.63
2019-02-10T09:36:30.769Z,30.60
2019-02-10T09:37:34.485Z,30.07
2019-02-10T09:38:38.135Z,33.47
2019-02-10T09:39:41.805Z,32.77
2019-02-10T09:40:45.468Z,31.93
2019-02-10T09:41:49.120Z,31.20
2019-02-10T09:42:53.293Z,29.13
2019-02-10T09:43:59.189Z,26.80
2019-02-10T09:45:02.875Z,28.37
2019-02-10T09:46:06.515Z,29.77
2019-02-10T09:47:11.781Z,30.27
2019-02-10T09:48:15.599Z,30.83
2019-02-10T09:49:19.303Z,32.83
2019-02-10T09:50:23.075Z,28.13
2019-02-10T09:51:27.116Z,28.00
2019-02-10T09:52:30.847Z,30.00
2019-02-10T09:53:34.534Z,27.47
2019-02-10T09:54:38.239Z,27.63
2019-02-10T09:55:42.266Z,28.20
2019-02-10T09:56:45.896Z,29.23
2019-02-10T09:57:49.646Z,28.23
2019-02-10T09:58:53.339Z,28.07
2019-02-10T09:59:57.114Z,31.53
2019-02-10T10:01:00.799Z,29.23
2019-02-10T10:02:04.497Z,27.37
2019-02-10T10:03:08.262Z,26.97
2019-02-10T10:04:11.898Z,25.93
2019-02-10T10:05:15.552Z,26.67
2019-02-10T10:06:19.197Z,28.07
2019-02-10T10:07:22.891Z,27.10
2019-02-10T10:08:26.610Z,27.30
2019-02-10T10:09:30.247Z,25.87
2019-02-10T10:10:34.278Z,26.30
2019-02-10T10:11:37.979Z,25.47
2019-02-10T10:12:41.628Z,25.40
2019-02-10T10:13:45.296Z,24.30
2019-02-10T10:14:48.930Z,24.63
2019-02-10T10:15:52.709Z,23.40
2019-02-10T10:16:56.533Z,25.13
2019-02-10T10:18:00.154Z,24.27
2019-02-10T10:19:03.831Z,22.67
2019-02-10T10:20:10.675Z,23.40
2019-02-10T10:21:14.421Z,23.57
2019-02-10T10:22:18.083Z,24.77
2019-02-10T10:23:21.740Z,25.00
2019-02-10T10:24:25.533Z,25.83
2019-02-10T10:25:29.183Z,31.70
2019-02-10T10:26:32.892Z,24.10
2019-02-10T10:27:36.665Z,22.23
2019-02-10T10:28:40.328Z,23.90
2019-02-10T10:29:43.997Z,24.10
2019-02-10T10:30:47.699Z,25.10
2019-02-10T10:31:51.413Z,26.17
2019-02-10T10:32:55.247Z,25.20
2019-02-10T10:33:58.949Z,23.33
2019-02-10T10:35:02.648Z,22.47
2019-02-10T10:36:06.300Z,22.47
2019-02-10T10:37:10.060Z,22.93
2019-02-10T10:38:13.625Z,22.97
2019-02-10T10:39:17.370Z,21.37
2019-02-10T10:40:21.111Z,23.60
2019-02-10T10:41:24.849Z,22.53
2019-02-10T10:42:28.617Z,20.10
2019-02-10T10:43:32.241Z,19.90
2019-02-10T10:44:36.367Z,20.80
2019-02-10T10:45:40.217Z,23.60
2019-02-10T10:46:43.978Z,21.80
2019-02-10T10:47:47.677Z,21.70
2019-02-10T10:48:51.347Z,23.93
2019-02-10T10:49:55.446Z,23.67
2019-02-10T10:50:59.560Z,23.07
2019-02-10T10:52:03.281Z,23.37
2019-02-10T10:53:06.988Z,23.30
2019-02-10T10:54:10.760Z,21.90
2019-02-10T10:55:14.608Z,22.60
2019-02-10T10:56:18.368Z,21.23
2019-02-10T10:57:22.151Z,21.67
2019-02-10T10:58:25.788Z,20.97
2019-02-10T10:59:29.559Z,21.10
2019-02-10T11:00:33.276Z,21.43
2019-02-10T11:01:37.284Z,22.10
2019-02-10T11:02:41.062Z,21.80
2019-02-10T11:03:44.763Z,21.37
2019-02-10T11:04:48.810Z,22.07
2019-02-10T11:05:52.520Z,20.50
2019-02-10T11:06:56.224Z,22.03
2019-02-10T11:08:00.540Z,20.67
2019-02-10T11:09:05.130Z,20.97
2019-02-10T11:10:12.991Z,21.23
2019-02-10T11:11:16.738Z,25.43
2019-02-10T11:12:20.445Z,26.33
2019-02-10T11:13:24.239Z,26.07
2019-02-10T11:14:28.050Z,22.20
2019-02-10T11:15:31.713Z,25.40
2019-02-10T11:16:36.446Z,25.60
2019-02-10T11:17:40.438Z,25.90
2019-02-10T11:18:44.116Z,26.97
2019-02-10T11:19:47.802Z,30.13
2019-02-10T11:20:53.025Z,30.00
2019-02-10T11:21:56.710Z,30.07
2019-02-10T11:23:00.863Z,29.93
2019-02-10T11:24:04.601Z,25.93
2019-02-10T11:25:10.789Z,27.40
2019-02-10T11:26:14.475Z,27.40
2019-02-10T11:27:18.132Z,27.93
2019-02-10T11:28:21.853Z,26.70
2019-02-10T11:29:25.619Z,27.13
2019-02-10T11:30:29.230Z,26.60
2019-02-10T11:31:32.867Z,26.60
2019-02-10T11:32:36.528Z,27.10
2019-02-10T11:33:40.226Z,24.90
2019-02-10T11:34:46.159Z,26.17
2019-02-10T11:35:49.262Z,23.43
2019-02-10T11:36:52.913Z,24.00
2019-02-10T11:37:56.672Z,24.83
2019-02-10T11:39:00.346Z,25.93
2019-02-10T11:40:05.409Z,25.80
2019-02-10T11:41:09.435Z,24.57
2019-02-10T11:42:13.394Z,25.13
2019-02-10T11:43:17.170Z,26.13
2019-02-10T11:44:20.735Z,26.67
2019-02-10T11:45:25.049Z,26.03
2019-02-10T11:46:28.699Z,24.73
2019-02-10T11:47:32.345Z,22.20
2019-02-10T11:48:36.996Z,23.10
2019-02-10T11:49:40.763Z,22.90
2019-02-10T11:50:44.508Z,23.70
2019-02-10T11:51:48.233Z,24.53
2019-02-10T11:52:51.869Z,23.07
2019-02-10T11:54:01.372Z,20.87
2019-02-10T11:55:06.719Z,21.07
2019-02-10T11:56:10.481Z,21.03
2019-02-10T11:57:14.190Z,21.33
2019-02-10T11:58:17.828Z,21.30
2019-02-10T11:59:21.470Z,20.97
2019-02-10T12:00:25.118Z,18.87
2019-02-10T12:01:29.356Z,17.97
2019-02-10T12:02:38.060Z,18.30
2019-02-10T12:03:38.372Z,17.37
2019-02-10T12:04:42.018Z,15.67
2019-02-10T12:05:46.020Z,16.57
2019-02-10T12:06:49.780Z,17.10
2019-02-10T12:07:53.429Z,18.30
2019-02-10T12:08:57.066Z,19.17
2019-02-10T12:10:00.776Z,18.87
2019-02-10T12:11:04.454Z,18.20
2019-02-10T12:12:08.192Z,15.60
2019-02-10T12:13:11.905Z,18.50
2019-02-10T12:14:15.572Z,19.70
2019-02-10T12:15:19.218Z,17.43
2019-02-10T12:16:22.859Z,17.37
2019-02-10T12:17:26.505Z,19.53
2019-02-10T12:18:30.146Z,18.03
2019-02-10T12:19:33.825Z,18.23
2019-02-10T12:20:37.462Z,19.67
2019-02-10T12:21:41.026Z,18.80
2019-02-10T12:22:49.990Z,17.70
2019-02-10T12:23:50.042Z,19.97
2019-02-10T12:24:53.722Z,20.20
2019-02-10T12:25:57.362Z,19.07
2019-02-10T12:27:01.446Z,19.20
2019-02-10T12:28:05.094Z,19.23
2019-02-10T12:29:08.910Z,19.07
2019-02-10T12:30:16.663Z,19.17
2019-02-10T12:31:20.309Z,18.70
2019-02-10T12:32:23.952Z,22.93
2019-02-10T12:33:28.005Z,24.57
2019-02-10T12:34:31.663Z,19.27
2019-02-10T12:35:35.317Z,18.20
2019-02-10T12:36:38.956Z,20.30
2019-02-10T12:37:48.011Z,21.17
2019-02-10T12:38:51.846Z,18.33
2019-02-10T12:39:59.752Z,17.20
2019-02-10T12:41:00.998Z,18.70
2019-02-10T12:42:04.775Z,18.20
2019-02-10T12:43:09.114Z,16.33
2019-02-10T12:44:12.911Z,17.57
2019-02-10T12:45:16.619Z,17.43
2019-02-10T12:46:20.353Z,17.47
2019-02-10T12:47:23.989Z,19.70
2019-02-10T12:48:34.589Z,18.90
2019-02-10T12:49:38.266Z,17.97
2019-02-10T12:50:41.962Z,19.43
2019-02-10T12:51:46.568Z,17.97
2019-02-10T12:52:50.274Z,19.23
2019-02-10T12:53:54.320Z,17.07
2019-02-10T12:54:58.053Z,18.10
2019-02-10T12:56:01.788Z,16.37
2019-02-10T12:57:05.563Z,17.53
2019-02-10T12:58:09.338Z,15.97
2019-02-10T12:59:13.059Z,16.60
2019-02-10T13:00:20.638Z,15.33
2019-02-10T13:01:24.290Z,14.53
2019-02-10T13:02:28.029Z,14.73
2019-02-10T13:03:31.621Z,14.43
2019-02-10T13:04:35.339Z,13.73
2019-02-10T13:05:38.971Z,12.80
2019-02-10T13:06:42.762Z,12.40
2019-02-10T13:07:46.402Z,12.93
2019-02-10T13:08:50.192Z,13.50
2019-02-10T13:09:53.897Z,13.13
2019-02-10T13:10:57.532Z,13.13
2019-02-10T13:12:01.649Z,12.37
2019-02-10T13:13:05.409Z,12.93
2019-02-10T13:14:09.037Z,13.40
2019-02-10T13:15:13.693Z,13.53
2019-02-10T13:16:17.426Z,13.83
2019-02-10T13:17:21.012Z,13.57
2019-02-10T13:18:24.761Z,13.93
2019-02-10T13:19:28.466Z,12.57
2019-02-10T13:20:32.190Z,13.53
2019-02-10T13:21:35.828Z,12.37
2019-02-10T13:22:39.470Z,12.77
2019-02-10T13:23:43.219Z,13.43
2019-02-10T13:24:46.929Z,12.77
2019-02-10T13:25:50.707Z,12.83
2019-02-10T13:26:54.364Z,12.63
2019-02-10T13:27:58.008Z,11.40
2019-02-10T13:29:01.699Z,12.70
2019-02-10T13:30:08.253Z,13.23
2019-02-10T13:31:11.970Z,11.70
2019-02-10T13:32:15.676Z,11.33
2019-02-10T13:33:19.706Z,11.83
2019-02-10T13:34:23.381Z,11.40
2019-02-10T13:35:27.017Z,10.70
2019-02-10T13:36:30.734Z,10.67
2019-02-10T13:37:34.464Z,10.60
2019-02-10T13:38:38.233Z,9.93
2019-02-10T13:39:41.902Z,10.10
2019-02-10T13:40:45.616Z,13.97
2019-02-10T13:41:47.974Z,13.20
2019-02-10T13:42:51.612Z,13.67
2019-02-10T13:43:55.181Z,13.20
2019-02-10T13:44:59.188Z,11.53
2019-02-10T13:46:02.991Z,12.67
2019-02-10T13:47:06.676Z,13.00
2019-02-10T13:48:10.832Z,11.53
2019-02-10T13:49:14.446Z,10.47
2019-02-10T13:50:19.099Z,10.33
2019-02-10T13:51:22.836Z,11.07
2019-02-10T13:52:28.445Z,10.93
2019-02-10T13:53:32.367Z,9.60
2019-02-10T13:54:36.053Z,10.67
2019-02-10T13:55:39.958Z,11.80
2019-02-10T13:56:43.733Z,11.37
2019-02-10T13:57:47.811Z,10.07
2019-02-10T13:58:51.531Z,10.43